Time;durP1;ratioP1;P1;durP2;ratioP2;P2;SDS_P1;SDS_P2;PMS_P1;PMS_P2;Temp;Humidity;BMP_temperature;BMP_pressure;BME280_temperature;BME280_humidity;BME280_pressure;Samples;Min_cycle;Max_cycle;Signal;HPM_P1;HPM_P2
2022/11/06 00:00:13;;;;;;;3.90;1.25;;;13.90;99.90;;;;;;5054230;28;20037;-65
2022/11/06 00:02:39;;;;;;;4.68;1.35;;;13.90;99.90;;;;;;5054814;28;20121;-65
2022/11/06 00:07:52;;;;;;;3.47;1.20;;;13.90;99.90;;;;;;5054879;28;20044;-66
2022/11/06 00:10:19;;;;;;;5.07;1.20;;;13.90;99.90;;;;;;5054286;28;20116;-64
2022/11/06 00:12:45;;;;;;;3.97;1.10;;;13.90;99.90;;;;;;5054332;28;20128;-62
2022/11/06 00:15:12;;;;;;;2.60;1.05;;;13.90;99.90;;;;;;5054680;28;20045;-66
2022/11/06 00:17:39;;;;;;;4.65;1.33;;;13.90;99.90;;;;;;5053969;28;20477;-67
2022/11/06 00:20:06;;;;;;;4.72;1.60;;;13.90;99.90;;;;;;5054136;28;20051;-66
2022/11/06 00:22:32;;;;;;;6.45;1.83;;;13.90;99.90;;;;;;5054077;28;20536;-64
2022/11/06 00:24:59;;;;;;;4.57;1.50;;;13.90;99.90;;;;;;5053822;28;20128;-66
2022/11/06 00:27:26;;;;;;;5.05;1.45;;;13.90;99.90;;;;;;5054017;28;20072;-64
2022/11/06 00:29:53;;;;;;;4.85;1.20;;;13.90;99.90;;;;;;5053958;28;20045;-67
2022/11/06 00:32:19;;;;;;;4.10;1.30;;;13.90;99.90;;;;;;5053862;28;20095;-64
2022/11/06 00:34:46;;;;;;;4.22;1.30;;;13.90;99.90;;;;;;5053691;28;20083;-63
2022/11/06 00:37:13;;;;;;;5.15;1.23;;;13.90;99.90;;;;;;5053518;28;20556;-65
2022/11/06 00:39:39;;;;;;;3.92;1.40;;;13.90;99.90;;;;;;5053346;28;20396;-64
2022/11/06 00:42:06;;;;;;;3.13;1.23;;;14.00;99.90;;;;;;5053640;28;20102;-62
2022/11/06 00:44:33;;;;;;;6.15;1.40;;;14.00;99.90;;;;;;5053448;28;20507;-64
2022/11/06 00:46:59;;;;;;;4.97;1.40;;;14.00;99.90;;;;;;5053628;28;20507;-64
2022/11/06 00:49:26;;;;;;;3.10;1.40;;;14.00;99.90;;;;;;5053509;28;20076;-65
2022/11/06 00:51:53;;;;;;;5.85;1.42;;;13.90;99.90;;;;;;5053606;28;20095;-65
2022/11/06 00:54:20;;;;;;;4.93;1.85;;;13.90;99.90;;;;;;5038356;28;20091;-65
2022/11/06 00:56:46;;;;;;;5.75;1.73;;;13.90;99.90;;;;;;5053891;28;20049;-63
2022/11/06 00:59:13;;;;;;;4.40;1.70;;;13.90;99.90;;;;;;5053396;28;20072;-63
2022/11/06 01:01:40;;;;;;;4.90;1.52;;;13.90;99.90;;;;;;5053427;28;20100;-66
2022/11/06 01:04:07;;;;;;;3.92;1.75;;;13.90;99.90;;;;;;5053152;28;20044;-66
2022/11/06 01:06:33;;;;;;;6.50;1.70;;;13.90;99.90;;;;;;5053238;28;20045;-65
2022/11/06 01:09:00;;;;;;;4.40;1.80;;;13.90;99.90;;;;;;5053358;28;20037;-64
2022/11/06 01:11:27;;;;;;;7.03;2.00;;;13.90;99.90;;;;;;5053177;28;20045;-64
2022/11/06 01:13:59;;;;;;;6.53;1.98;;;13.90;99.90;;;;;;5053295;28;20049;-67
2022/11/06 01:16:26;;;;;;;8.20;1.83;;;14.00;99.90;;;;;;5051340;28;20550;-62
2022/11/06 01:18:53;;;;;;;5.93;1.95;;;14.00;99.90;;;;;;5053170;28;20130;-64
2022/11/06 01:21:19;;;;;;;4.50;1.75;;;14.00;99.90;;;;;;5053142;28;20108;-63
2022/11/06 01:23:46;;;;;;;4.55;1.92;;;14.00;99.90;;;;;;5045499;28;20046;-65
2022/11/06 01:26:13;;;;;;;7.85;1.88;;;14.00;99.90;;;;;;5053145;28;20041;-63
2022/11/06 01:28:39;;;;;;;8.20;1.98;;;14.00;99.90;;;;;;5053061;28;20110;-63
2022/11/06 01:31:06;;;;;;;4.55;1.40;;;14.00;99.90;;;;;;5053030;28;20049;-63
2022/11/06 01:33:33;;;;;;;4.55;1.55;;;14.00;99.90;;;;;;5053073;28;20128;-64
2022/11/06 01:36:00;;;;;;;7.43;1.95;;;14.00;99.90;;;;;;5053169;28;20120;-64
2022/11/06 01:38:26;;;;;;;5.78;2.10;;;14.00;99.90;;;;;;5053303;28;20404;-64
2022/11/06 01:40:53;;;;;;;4.95;1.77;;;14.00;99.90;;;;;;5046624;28;20041;-64
2022/11/06 01:43:20;;;;;;;4.22;1.83;;;14.00;99.90;;;;;;5046282;28;20503;-63
2022/11/06 01:45:46;;;;;;;7.07;1.70;;;14.10;99.90;;;;;;5052927;28;20111;-65
2022/11/06 01:48:13;;;;;;;5.70;1.83;;;14.10;99.90;;;;;;5053006;28;20049;-65
2022/11/06 01:50:40;;;;;;;6.07;1.80;;;14.10;99.90;;;;;;5054201;28;20050;-63
2022/11/06 01:53:07;;;;;;;5.22;1.60;;;14.10;99.90;;;;;;5056315;28;20557;-64
2022/11/06 01:55:34;;;;;;;4.03;1.38;;;14.10;99.90;;;;;;5056885;28;20399;-64
2022/11/06 01:58:01;;;;;;;4.72;1.30;;;14.10;99.90;;;;;;5056757;28;20083;-63
2022/11/06 02:00:29;;;;;;;4.78;1.38;;;14.10;99.90;;;;;;5056459;28;20043;-64
2022/11/06 02:02:56;;;;;;;4.85;1.40;;;14.10;99.90;;;;;;5056481;28;20045;-63
2022/11/06 02:05:23;;;;;;;5.50;1.38;;;14.10;99.90;;;;;;5056703;28;20094;-64
2022/11/06 02:07:50;;;;;;;5.65;1.50;;;14.10;99.90;;;;;;5056809;28;20123;-63
2022/11/06 02:10:17;;;;;;;3.63;1.40;;;14.10;99.90;;;;;;5056534;28;20073;-64
2022/11/06 02:12:44;;;;;;;3.22;1.63;;;14.10;99.90;;;;;;5056496;28;20125;-64
2022/11/06 02:15:11;;;;;;;3.83;1.48;;;14.10;99.90;;;;;;5056191;28;20127;-65
2022/11/06 02:17:37;;;;;;;3.47;1.60;;;14.10;99.90;;;;;;5055095;28;20381;-63
2022/11/06 02:20:04;;;;;;;4.05;1.45;;;14.10;99.90;;;;;;5056483;28;20067;-64
2022/11/06 02:22:32;;;;;;;4.03;1.50;;;14.10;99.90;;;;;;5054768;28;20041;-64
2022/11/06 02:24:58;;;;;;;4.50;1.27;;;14.10;99.90;;;;;;5056173;28;20041;-65
2022/11/06 02:27:25;;;;;;;5.80;1.52;;;14.10;99.90;;;;;;5056248;28;20484;-64
2022/11/06 02:29:52;;;;;;;5.45;1.30;;;14.10;99.90;;;;;;5055212;28;20127;-65
2022/11/06 02:32:19;;;;;;;6.15;1.60;;;14.10;99.90;;;;;;5056268;28;20045;-65
2022/11/06 02:34:45;;;;;;;6.15;2.08;;;14.10;99.90;;;;;;5056185;28;20048;-64
2022/11/06 02:37:12;;;;;;;7.20;2.13;;;14.10;99.90;;;;;;5056093;28;20452;-65
2022/11/06 02:39:39;;;;;;;5.38;2.00;;;14.10;99.90;;;;;;5056217;28;20048;-63
2022/11/06 02:42:05;;;;;;;10.18;2.58;;;14.10;99.90;;;;;;5055706;28;20048;-64
2022/11/06 02:44:33;;;;;;;6.15;2.20;;;14.10;99.90;;;;;;5056038;28;20073;-68
2022/11/06 02:46:59;;;;;;;7.80;2.20;;;14.10;99.90;;;;;;5055937;28;20064;-66
2022/11/06 02:49:26;;;;;;;9.30;2.65;;;14.10;99.90;;;;;;5056119;28;20069;-65
2022/11/06 02:51:53;;;;;;;6.10;2.53;;;14.10;99.90;;;;;;5054572;28;20079;-66
2022/11/06 02:54:19;;;;;;;6.53;2.10;;;14.10;99.90;;;;;;5054992;28;20547;-64
2022/11/06 02:56:46;;;;;;;4.60;1.90;;;14.10;99.90;;;;;;5055672;28;20049;-65
2022/11/06 02:59:13;;;;;;;7.95;2.33;;;14.10;99.90;;;;;;5055667;28;20537;-66
2022/11/06 03:01:40;;;;;;;6.30;1.95;;;14.10;99.90;;;;;;5053913;28;20492;-67
2022/11/06 03:04:06;;;;;;;7.20;1.73;;;14.00;99.90;;;;;;5055059;28;20033;-64
2022/11/06 03:06:33;;;;;;;6.03;1.45;;;14.10;99.90;;;;;;5055609;28;20128;-66
2022/11/06 03:09:00;;;;;;;6.90;1.58;;;14.10;99.90;;;;;;5055516;28;20065;-66
2022/11/06 03:11:26;;;;;;;7.38;1.50;;;14.10;99.90;;;;;;5055455;28;20045;-64
2022/11/06 03:13:53;;;;;;;6.35;1.60;;;14.10;99.90;;;;;;5055200;28;20384;-66
2022/11/06 03:16:20;;;;;;;5.60;1.80;;;14.10;99.90;;;;;;5055395;28;20045;-63
2022/11/06 03:18:47;;;;;;;5.97;1.60;;;14.10;99.90;;;;;;5055177;28;20091;-65
2022/11/06 03:21:13;;;;;;;5.88;1.88;;;14.10;99.90;;;;;;5055362;28;20476;-64
2022/11/06 03:23:40;;;;;;;10.30;1.90;;;14.10;99.90;;;;;;5055336;28;20094;-64
2022/11/06 03:26:07;;;;;;;7.15;1.63;;;14.10;99.90;;;;;;5052985;28;20041;-66
2022/11/06 03:28:33;;;;;;;8.45;1.73;;;14.10;99.90;;;;;;5055333;28;20124;-64
2022/11/06 03:31:00;;;;;;;6.57;1.80;;;14.10;99.90;;;;;;5053743;28;20083;-65
2022/11/06 03:33:27;;;;;;;6.82;1.50;;;14.10;99.90;;;;;;5049145;28;20055;-67
2022/11/06 03:35:54;;;;;;;8.40;1.60;;;14.10;99.90;;;;;;5053603;28;20048;-65
2022/11/06 03:38:20;;;;;;;4.90;1.70;;;14.10;99.90;;;;;;5055251;28;20041;-67
2022/11/06 03:40:47;;;;;;;6.00;1.67;;;14.10;99.90;;;;;;5054831;28;20480;-63
2022/11/06 03:43:14;;;;;;;6.28;2.13;;;14.10;99.90;;;;;;5054863;28;20047;-62
2022/11/06 03:45:40;;;;;;;5.43;1.98;;;14.10;99.90;;;;;;5053535;28;20068;-65
2022/11/06 03:48:08;;;;;;;5.47;2.15;;;14.10;99.90;;;;;;5055024;28;20075;-62
2022/11/06 03:50:34;;;;;;;4.18;1.88;;;14.10;99.90;;;;;;5054428;28;20404;-63
2022/11/06 03:53:01;;;;;;;5.40;1.98;;;14.10;99.90;;;;;;5054844;28;20049;-66
2022/11/06 03:55:28;;;;;;;4.50;1.50;;;14.10;99.90;;;;;;5037431;28;20128;-63
2022/11/06 03:57:55;;;;;;;4.20;1.70;;;14.10;99.90;;;;;;5034933;28;20049;-63
2022/11/06 04:00:21;;;;;;;3.03;1.33;;;14.10;99.90;;;;;;5034842;28;20116;-66
2022/11/06 04:02:48;;;;;;;4.00;1.67;;;14.10;99.90;;;;;;5034809;28;20072;-64
2022/11/06 04:05:15;;;;;;;3.80;1.50;;;14.10;99.90;;;;;;5035270;28;20048;-63
2022/11/06 04:07:42;;;;;;;5.05;1.63;;;14.10;99.90;;;;;;5035080;28;20088;-66
2022/11/06 04:15:39;;;;;;;3.60;2.13;;;14.00;99.90;;;;;;5034301;28;19975;-63
2022/11/06 04:18:06;;;;;;;3.65;2.03;;;14.00;99.90;;;;;;5034467;28;20476;-64
2022/11/06 04:23:18;;;;;;;2.72;1.80;;;14.00;99.90;;;;;;5034648;28;20128;-66
2022/11/06 04:28:30;;;;;;;2.50;1.40;;;14.00;99.90;;;;;;5034596;28;20049;-66
2022/11/06 04:30:57;;;;;;;3.60;1.50;;;14.00;99.90;;;;;;5033057;28;20045;-64
2022/11/06 04:33:23;;;;;;;3.00;0.98;;;14.00;99.90;;;;;;5034738;28;20552;-61
2022/11/06 04:35:50;;;;;;;1.85;0.80;;;14.00;99.90;;;;;;5034063;28;20092;-66
2022/11/06 04:38:17;;;;;;;1.65;0.60;;;14.00;99.90;;;;;;5034495;28;20050;-63
2022/11/06 04:40:44;;;;;;;2.22;1.10;;;14.00;99.90;;;;;;5034200;28;20041;-65
2022/11/06 04:43:10;;;;;;;3.05;0.60;;;14.00;99.90;;;;;;5034562;28;20092;-64
2022/11/06 04:45:37;;;;;;;2.95;0.60;;;14.00;99.90;;;;;;5034267;28;20030;-64
2022/11/06 04:48:04;;;;;;;1.80;0.60;;;14.00;99.90;;;;;;5034230;28;20484;-65
2022/11/06 04:50:31;;;;;;;1.60;0.60;;;14.10;99.90;;;;;;5033978;28;20044;-65
2022/11/06 04:52:57;;;;;;;2.45;0.68;;;14.00;99.90;;;;;;5033913;28;20127;-64
2022/11/06 04:55:24;;;;;;;4.75;1.00;;;14.10;99.90;;;;;;5033990;28;20084;-65
2022/11/06 04:57:51;;;;;;;3.22;0.90;;;14.10;99.90;;;;;;5034239;28;20049;-63
2022/11/06 05:00:17;;;;;;;5.78;1.10;;;14.10;99.90;;;;;;5033717;28;20073;-67
2022/11/06 05:02:44;;;;;;;5.90;1.40;;;14.00;99.90;;;;;;5033950;28;20037;-65
2022/11/06 05:05:11;;;;;;;9.05;1.48;;;14.10;99.90;;;;;;5032763;28;20038;-66
2022/11/06 05:07:37;;;;;;;8.80;1.63;;;14.10;99.90;;;;;;5034093;28;20073;-66
2022/11/06 05:10:04;;;;;;;8.48;1.50;;;14.10;99.90;;;;;;5033790;28;20166;-62
2022/11/06 05:12:31;;;;;;;9.77;1.88;;;14.10;99.90;;;;;;5033835;28;20049;-64
2022/11/06 05:14:57;;;;;;;9.88;1.88;;;14.10;99.90;;;;;;5033833;28;20065;-65
2022/11/06 05:17:24;;;;;;;9.88;1.80;;;14.10;99.90;;;;;;5033566;28;20069;-66
2022/11/06 05:19:51;;;;;;;7.32;1.98;;;14.10;99.90;;;;;;5032398;28;20080;-64
2022/11/06 05:25:03;;;;;;;10.52;2.17;;;14.10;99.90;;;;;;5034798;28;20133;-66
2022/11/06 05:27:29;;;;;;;9.88;2.10;;;14.10;99.90;;;;;;5040330;28;20047;-64
2022/11/06 05:29:56;;;;;;;6.95;2.20;;;14.10;99.90;;;;;;5040442;28;20054;-64
2022/11/06 05:32:23;;;;;;;10.77;1.83;;;14.10;99.90;;;;;;5039915;28;20061;-63
2022/11/06 05:34:50;;;;;;;7.70;1.70;;;14.10;99.90;;;;;;5039843;28;20048;-63
2022/11/06 05:37:16;;;;;;;7.22;1.75;;;14.10;99.90;;;;;;5039976;28;20458;-64
2022/11/06 05:39:43;;;;;;;9.32;1.80;;;14.10;99.90;;;;;;5039924;28;20540;-66
2022/11/06 05:42:10;;;;;;;4.07;1.10;;;14.10;99.90;;;;;;5040125;28;20033;-63
2022/11/06 05:44:36;;;;;;;6.85;1.45;;;14.10;99.90;;;;;;5039863;28;20087;-64
2022/11/06 05:47:03;;;;;;;5.32;1.35;;;14.10;99.90;;;;;;5038815;28;20079;-64
2022/11/06 05:49:30;;;;;;;5.50;1.25;;;14.10;99.90;;;;;;5039928;28;20060;-63
2022/11/06 05:51:57;;;;;;;6.63;1.30;;;14.00;99.90;;;;;;5040040;28;20777;-62
2022/11/06 05:54:23;;;;;;;8.02;1.40;;;14.00;99.90;;;;;;5040245;28;20041;-64
2022/11/06 05:56:50;;;;;;;8.63;1.80;;;14.00;99.90;;;;;;5039845;28;20140;-62
2022/11/06 05:59:17;;;;;;;6.18;1.77;;;14.00;99.90;;;;;;5039831;28;20116;-64
2022/11/06 06:01:44;;;;;;;6.50;2.05;;;14.00;99.90;;;;;;5039604;28;20485;-64
2022/11/06 06:04:11;;;;;;;7.18;2.47;;;14.00;99.90;;;;;;5039634;28;20064;-64
2022/11/06 06:06:37;;;;;;;9.73;3.10;;;14.00;99.90;;;;;;5039485;28;20144;-63
2022/11/06 06:09:04;;;;;;;7.88;2.45;;;14.00;99.90;;;;;;5039673;28;20068;-65
2022/11/06 06:11:31;;;;;;;5.97;2.83;;;14.00;99.90;;;;;;5039627;28;20080;-65
2022/11/06 06:13:57;;;;;;;8.35;2.63;;;14.00;99.90;;;;;;5038206;28;20543;-65
2022/11/06 06:16:24;;;;;;;7.93;2.47;;;14.00;99.90;;;;;;5039551;28;20077;-66
2022/11/06 06:18:51;;;;;;;5.47;1.58;;;14.10;99.90;;;;;;5039265;28;20095;-64
2022/11/06 06:21:19;;;;;;;5.90;1.30;;;14.10;99.90;;;;;;5039615;28;20103;-65
2022/11/06 06:23:45;;;;;;;4.55;1.23;;;14.10;99.90;;;;;;5039312;28;20115;-65
2022/11/06 06:26:12;;;;;;;6.80;1.40;;;14.10;99.90;;;;;;5039768;28;20044;-65
2022/11/06 06:28:39;;;;;;;6.63;1.58;;;14.10;99.90;;;;;;5039579;28;20047;-64
2022/11/06 06:31:06;;;;;;;7.70;1.27;;;14.10;99.90;;;;;;5039020;28;20049;-63
2022/11/06 06:33:32;;;;;;;5.00;1.17;;;14.10;99.90;;;;;;5039688;28;20041;-62
2022/11/06 06:35:59;;;;;;;7.35;1.15;;;14.10;99.90;;;;;;5039373;28;20208;-64
2022/11/06 06:38:26;;;;;;;6.35;1.27;;;14.10;99.90;;;;;;5035169;28;20069;-65
2022/11/06 06:40:53;;;;;;;5.88;1.17;;;14.10;99.90;;;;;;5036478;28;20080;-64
2022/11/06 06:43:19;;;;;;;8.40;1.90;;;14.10;99.90;;;;;;5036257;28;20040;-64
2022/11/06 06:45:46;;;;;;;6.15;1.60;;;14.10;99.90;;;;;;5036069;28;20076;-62
2022/11/06 06:48:13;;;;;;;10.73;1.90;;;14.10;99.90;;;;;;5036652;28;20038;-65
2022/11/06 06:50:40;;;;;;;7.35;1.30;;;14.10;99.90;;;;;;5036514;28;20042;-64
2022/11/06 06:53:07;;;;;;;7.18;1.38;;;14.10;99.90;;;;;;5036355;28;20458;-66
2022/11/06 06:55:33;;;;;;;7.85;1.65;;;14.10;99.90;;;;;;5035950;28;20065;-64
2022/11/06 06:58:00;;;;;;;8.02;1.77;;;14.10;99.90;;;;;;5036439;28;20416;-64
2022/11/06 07:00:27;;;;;;;9.32;2.22;;;14.20;99.90;;;;;;5035799;28;20096;-62
2022/11/06 07:02:54;;;;;;;7.82;1.77;;;14.10;99.90;;;;;;5036192;28;20140;-63
2022/11/06 07:05:21;;;;;;;11.10;2.08;;;14.20;99.90;;;;;;5035733;28;20465;-64
2022/11/06 07:07:47;;;;;;;8.38;1.77;;;14.20;99.90;;;;;;5035917;28;20068;-64
2022/11/06 07:10:14;;;;;;;9.73;2.38;;;14.20;99.90;;;;;;5036406;28;20045;-64
2022/11/06 07:12:41;;;;;;;11.35;2.33;;;14.20;99.90;;;;;;5036262;28;20077;-63
2022/11/06 07:15:07;;;;;;;9.13;1.73;;;14.20;99.90;;;;;;5035705;28;20084;-66
2022/11/06 07:17:34;;;;;;;13.27;2.55;;;14.20;99.90;;;;;;5036034;28;20041;-62
2022/11/06 07:20:01;;;;;;;11.32;2.47;;;14.20;99.90;;;;;;5036065;28;20076;-63
2022/11/06 07:22:27;;;;;;;15.10;2.17;;;14.20;99.90;;;;;;5035575;28;20121;-64
2022/11/06 07:25:03;;;;;;;10.95;2.65;;;14.20;99.90;;;;;;5035830;28;20061;-65
2022/11/06 07:27:29;;;;;;;9.38;2.25;;;14.20;99.90;;;;;;5035459;28;20045;-64
2022/11/06 07:29:56;;;;;;;10.80;2.20;;;14.20;99.90;;;;;;5035742;28;20504;-65
2022/11/06 07:32:23;;;;;;;11.68;2.22;;;14.20;99.90;;;;;;5036043;28;20455;-64
2022/11/06 07:34:49;;;;;;;10.55;2.42;;;14.20;99.90;;;;;;5035690;28;20053;-64
2022/11/06 07:37:16;;;;;;;10.50;2.25;;;14.20;99.90;;;;;;5035296;28;20463;-64
2022/11/06 07:39:43;;;;;;;11.68;2.38;;;14.20;99.90;;;;;;5035305;28;20532;-64
2022/11/06 07:42:09;;;;;;;9.30;2.10;;;14.20;99.90;;;;;;5035359;28;20453;-62
2022/11/06 07:44:54;;;;;;;10.82;2.40;;;14.20;99.90;;;;;;5033863;28;20499;-63
2022/11/06 07:47:21;;;;;;;12.18;2.05;;;14.20;99.90;;;;;;5035694;28;20053;-64
2022/11/06 07:49:47;;;;;;;13.88;2.47;;;14.20;99.90;;;;;;5034951;28;20495;-63
2022/11/06 07:52:16;;;;;;;12.43;2.30;;;14.20;99.90;;;;;;5034294;28;20392;-64
2022/11/06 07:54:43;;;;;;;10.45;2.20;;;14.20;99.90;;;;;;5035431;28;20045;-63
2022/11/06 07:57:10;;;;;;;11.93;2.35;;;14.20;99.90;;;;;;5034990;28;20128;-64
2022/11/06 07:59:36;;;;;;;11.48;2.55;;;14.20;99.90;;;;;;5034892;28;20075;-65
2022/11/06 08:02:03;;;;;;;8.48;2.03;;;14.30;99.90;;;;;;5034674;28;20068;-65
2022/11/06 08:04:30;;;;;;;9.15;2.13;;;14.20;99.90;;;;;;5034628;28;20108;-63
2022/11/06 08:06:56;;;;;;;13.82;2.30;;;14.30;99.90;;;;;;5034782;28;20477;-63
2022/11/06 08:09:24;;;;;;;13.73;2.40;;;14.20;99.90;;;;;;5034787;28;20117;-64
2022/11/06 08:11:50;;;;;;;15.73;2.45;;;14.30;99.90;;;;;;5034645;28;20084;-64
2022/11/06 08:14:17;;;;;;;9.23;2.10;;;14.30;99.90;;;;;;5034688;28;20060;-63
2022/11/06 08:16:44;;;;;;;14.55;2.85;;;14.30;99.90;;;;;;5034741;28;20062;-66
2022/11/06 08:19:10;;;;;;;11.52;2.83;;;14.20;99.90;;;;;;5034779;28;20127;-64
2022/11/06 08:21:37;;;;;;;8.13;2.00;;;14.30;99.90;;;;;;5034542;28;20120;-63
2022/11/06 08:24:04;;;;;;;10.23;2.03;;;14.20;99.90;;;;;;5034671;28;20041;-64
2022/11/06 08:26:30;;;;;;;11.70;2.00;;;14.30;99.90;;;;;;5034705;28;20120;-64
2022/11/06 08:28:57;;;;;;;13.32;3.05;;;14.20;99.90;;;;;;5034188;28;20086;-64
2022/11/06 08:31:24;;;;;;;9.90;2.67;;;14.20;99.90;;;;;;5034480;28;20128;-66
2022/11/06 08:33:52;;;;;;;7.50;2.58;;;14.20;99.90;;;;;;5033136;28;20049;-64
2022/11/06 08:36:19;;;;;;;10.13;2.63;;;14.20;99.90;;;;;;5034066;28;20045;-66
2022/11/06 08:38:46;;;;;;;10.38;3.03;;;14.20;99.90;;;;;;5034715;28;20453;-65
2022/11/06 08:41:12;;;;;;;8.88;2.92;;;14.20;99.90;;;;;;5034586;28;20052;-65
2022/11/06 08:43:39;;;;;;;13.43;2.80;;;14.20;99.90;;;;;;5034168;28;20132;-64
2022/11/06 08:46:06;;;;;;;7.75;2.85;;;14.20;99.90;;;;;;5034129;28;20061;-64
2022/11/06 08:48:32;;;;;;;8.75;3.17;;;14.20;99.90;;;;;;5034195;28;20555;-65
2022/11/06 08:50:59;;;;;;;9.88;2.92;;;14.20;99.90;;;;;;5034159;28;20037;-63
2022/11/06 08:53:26;;;;;;;8.15;3.13;;;14.20;99.90;;;;;;5033990;28;20064;-64
2022/11/06 08:55:53;;;;;;;11.80;3.20;;;14.10;99.90;;;;;;5033920;28;20045;-64
2022/11/06 08:58:19;;;;;;;10.50;3.15;;;14.10;99.90;;;;;;5033144;28;20048;-64
2022/11/06 09:00:46;;;;;;;8.40;2.67;;;14.10;99.90;;;;;;5033324;28;20483;-63
2022/11/06 09:03:13;;;;;;;6.47;1.90;;;14.20;99.90;;;;;;5033642;28;20033;-65
2022/11/06 09:05:40;;;;;;;4.65;1.58;;;14.10;99.90;;;;;;5033427;28;20049;-63
2022/11/06 09:08:07;;;;;;;7.85;1.90;;;14.10;99.90;;;;;;5033673;28;20068;-62
2022/11/06 09:10:34;;;;;;;4.85;1.52;;;14.10;99.90;;;;;;5033683;28;20096;-64
2022/11/06 09:13:00;;;;;;;5.55;1.42;;;14.10;99.90;;;;;;5033904;28;20124;-63
2022/11/06 09:15:27;;;;;;;6.68;1.67;;;14.10;99.90;;;;;;5016154;28;20049;-65
2022/11/06 09:17:54;;;;;;;4.45;1.38;;;14.10;99.90;;;;;;5033539;28;20132;-63
2022/11/06 09:20:20;;;;;;;5.10;1.40;;;14.10;99.90;;;;;;5033864;28;20496;-62
2022/11/06 09:22:47;;;;;;;5.50;1.70;;;14.10;99.90;;;;;;5033812;28;20038;-64
2022/11/06 09:25:14;;;;;;;4.40;1.70;;;14.10;99.90;;;;;;5033753;28;20104;-63
2022/11/06 09:27:41;;;;;;;5.30;1.83;;;14.10;99.90;;;;;;5033792;28;20046;-63
2022/11/06 09:30:07;;;;;;;3.95;1.33;;;14.10;99.90;;;;;;5033589;28;20045;-64
2022/11/06 09:32:34;;;;;;;5.32;1.75;;;14.10;99.90;;;;;;5033863;28;20048;-63
2022/11/06 09:35:01;;;;;;;6.35;2.40;;;14.10;99.90;;;;;;5033575;28;20049;-63
2022/11/06 09:37:27;;;;;;;5.60;2.63;;;14.10;99.90;;;;;;5016478;28;20555;-63
2022/11/06 09:39:54;;;;;;;6.70;2.58;;;14.10;99.90;;;;;;5033480;28;20045;-64
2022/11/06 09:42:21;;;;;;;4.65;2.22;;;14.10;99.90;;;;;;5033838;28;20092;-62
2022/11/06 09:44:47;;;;;;;4.13;1.75;;;14.00;99.90;;;;;;5033241;28;20080;-64
2022/11/06 09:47:14;;;;;;;5.25;1.30;;;14.10;99.90;;;;;;5033369;28;20492;-64
2022/11/06 09:49:41;;;;;;;2.10;0.80;;;14.10;99.90;;;;;;5033128;28;20076;-62
2022/11/06 09:52:08;;;;;;;3.47;0.85;;;14.00;99.90;;;;;;5033191;28;20034;-63
2022/11/06 09:54:34;;;;;;;2.92;0.73;;;14.10;99.90;;;;;;5033309;28;20132;-62
2022/11/06 09:57:01;;;;;;;2.40;0.70;;;14.00;99.90;;;;;;5033682;28;20457;-64
2022/11/06 09:59:28;;;;;;;2.35;0.68;;;14.10;99.90;;;;;;5033635;28;20042;-63
2022/11/06 10:01:55;;;;;;;3.63;0.95;;;14.10;99.90;;;;;;5033463;28;20116;-64
2022/11/06 10:04:21;;;;;;;4.55;1.00;;;14.10;99.90;;;;;;5033116;28;20491;-64
2022/11/06 10:06:48;;;;;;;4.45;1.23;;;14.10;99.90;;;;;;5033306;28;20116;-63
2022/11/06 10:09:16;;;;;;;4.88;1.23;;;14.10;99.90;;;;;;5033387;28;20037;-63
2022/11/06 10:11:43;;;;;;;3.00;1.00;;;14.10;99.90;;;;;;5034669;28;20072;-62
2022/11/06 10:14:09;;;;;;;2.83;1.02;;;14.00;99.90;;;;;;5036730;28;20140;-64
2022/11/06 10:16:36;;;;;;;3.60;0.85;;;14.00;99.90;;;;;;5036942;28;20041;-64
2022/11/06 10:19:03;;;;;;;2.20;0.77;;;14.00;99.90;;;;;;5036564;28;20132;-64
2022/11/06 10:21:29;;;;;;;4.22;1.30;;;14.00;99.90;;;;;;5035896;28;20117;-63
2022/11/06 10:23:57;;;;;;;2.67;0.60;;;14.00;99.90;;;;;;5036703;28;20045;-64
2022/11/06 10:26:23;;;;;;;1.55;0.55;;;14.00;99.90;;;;;;5035618;28;20095;-62
2022/11/06 10:28:55;;;;;;;2.67;0.80;;;13.90;99.90;;;;;;5037062;28;20042;-64
2022/11/06 10:31:22;;;;;;;2.97;0.80;;;13.90;99.90;;;;;;5039063;28;20037;-63
2022/11/06 10:33:49;;;;;;;2.17;0.80;;;13.90;99.90;;;;;;5063050;28;20426;-64
2022/11/06 10:36:16;;;;;;;2.63;0.90;;;13.90;99.90;;;;;;5076531;28;20376;-63
2022/11/06 10:38:42;;;;;;;4.80;1.10;;;13.90;99.90;;;;;;5050941;28;20068;-63
2022/11/06 10:41:09;;;;;;;2.08;0.98;;;13.90;99.90;;;;;;5036357;28;20085;-64
2022/11/06 10:43:36;;;;;;;3.17;1.40;;;13.90;99.90;;;;;;5055904;28;20033;-63
2022/11/06 10:46:02;;;;;;;3.13;1.10;;;13.90;99.90;;;;;;5056744;28;20048;-64
2022/11/06 10:48:29;;;;;;;1.95;0.90;;;13.90;99.90;;;;;;5056317;28;20037;-63
2022/11/06 10:51:02;;;;;;;2.50;0.80;;;13.90;99.90;;;;;;5055216;28;20041;-62
2022/11/06 10:53:29;;;;;;;2.03;0.73;;;13.80;99.90;;;;;;5056492;28;20072;-62
2022/11/06 10:55:56;;;;;;;2.83;1.15;;;13.80;99.90;;;;;;5056347;28;20055;-63
2022/11/06 10:58:22;;;;;;;3.95;1.10;;;13.80;99.90;;;;;;5055900;28;20494;-66
2022/11/06 11:00:51;;;;;;;4.70;1.10;;;13.80;99.90;;;;;;5055989;28;20103;-62
2022/11/06 11:03:18;;;;;;;3.75;1.20;;;13.80;99.90;;;;;;5055820;28;20451;-64
2022/11/06 11:05:45;;;;;;;4.00;1.20;;;13.80;99.90;;;;;;5056017;28;20511;-64
2022/11/06 11:08:11;;;;;;;2.25;1.00;;;13.80;99.90;;;;;;5055735;28;20041;-63
2022/11/06 11:10:38;;;;;;;3.65;1.48;;;13.70;99.90;;;;;;5055457;28;20040;-64
2022/11/06 11:13:05;;;;;;;3.78;1.30;;;13.70;99.90;;;;;;5055419;28;20411;-63
2022/11/06 11:15:34;;;;;;;4.38;0.90;;;13.70;99.90;;;;;;5054463;28;20045;-63
2022/11/06 11:18:01;;;;;;;3.78;0.98;;;13.60;99.90;;;;;;5055714;28;20049;-63
2022/11/06 11:20:28;;;;;;;3.53;0.90;;;13.60;99.90;;;;;;5055716;28;20506;-64
2022/11/06 11:22:54;;;;;;;3.45;0.85;;;13.60;99.90;;;;;;5054864;28;20098;-63
2022/11/06 11:25:21;;;;;;;2.28;0.90;;;13.60;99.90;;;;;;5055715;28;20129;-65
2022/11/06 11:27:48;;;;;;;3.97;1.10;;;13.70;99.90;;;;;;5055425;28;20512;-64
2022/11/06 11:30:14;;;;;;;4.53;1.00;;;13.70;99.90;;;;;;5055160;28;20140;-63
2022/11/06 11:32:41;;;;;;;5.05;1.10;;;13.80;99.90;;;;;;5055174;28;20488;-62
2022/11/06 11:35:08;;;;;;;6.70;1.55;;;13.90;99.90;;;;;;5054949;28;20133;-63
2022/11/06 11:37:35;;;;;;;11.38;1.95;;;13.90;99.90;;;;;;5055061;28;20045;-64
2022/11/06 11:40:01;;;;;;;8.23;1.38;;;13.90;99.90;;;;;;5054821;28;20049;-64
2022/11/06 11:42:28;;;;;;;8.40;1.75;;;13.90;99.90;;;;;;5054967;28;20051;-65
2022/11/06 11:44:55;;;;;;;9.85;1.92;;;14.00;99.90;;;;;;5054869;28;20041;-63
2022/11/06 11:47:22;;;;;;;8.75;1.65;;;13.90;99.90;;;;;;5054914;28;20115;-63
2022/11/06 11:49:48;;;;;;;9.73;1.98;;;13.90;99.90;;;;;;5055255;28;20119;-63
2022/11/06 11:52:15;;;;;;;6.70;1.80;;;13.90;99.90;;;;;;5055257;28;20088;-63
2022/11/06 11:54:42;;;;;;;8.95;2.40;;;13.90;99.90;;;;;;5054952;28;20061;-63
2022/11/06 11:57:08;;;;;;;11.30;2.33;;;13.90;99.90;;;;;;5052231;28;20078;-65
2022/11/06 11:59:35;;;;;;;10.93;2.35;;;13.90;99.90;;;;;;5054393;28;20102;-64
2022/11/06 12:02:02;;;;;;;13.18;3.05;;;13.90;99.90;;;;;;5053621;28;21507;-64
2022/11/06 12:04:29;;;;;;;11.18;2.00;;;13.80;99.90;;;;;;5048001;28;20127;-65
2022/11/06 12:06:55;;;;;;;10.00;2.55;;;13.90;99.90;;;;;;5047026;28;20511;-63
2022/11/06 12:09:22;;;;;;;12.00;2.33;;;13.90;99.90;;;;;;5046322;28;20116;-62
2022/11/06 12:11:49;;;;;;;13.23;2.65;;;13.80;99.90;;;;;;5053709;28;20115;-61
2022/11/06 12:14:16;;;;;;;14.55;2.22;;;13.80;99.90;;;;;;5054039;28;20052;-62
2022/11/06 12:16:42;;;;;;;11.57;2.13;;;13.80;99.90;;;;;;5053904;28;20128;-62
2022/11/06 12:19:09;;;;;;;9.98;2.05;;;13.80;99.90;;;;;;5053378;28;20106;-61
2022/11/06 12:21:36;;;;;;;16.13;2.45;;;13.80;99.90;;;;;;5053940;28;20454;-62
2022/11/06 12:24:02;;;;;;;14.65;2.70;;;13.80;99.90;;;;;;5053250;28;20041;-63
2022/11/06 12:26:29;;;;;;;13.40;2.50;;;13.80;99.90;;;;;;5053830;28;20041;-64
2022/11/06 12:28:56;;;;;;;9.93;2.08;;;13.80;99.90;;;;;;5053329;28;20068;-62
2022/11/06 12:31:30;;;;;;;13.63;2.70;;;13.80;99.90;;;;;;5053871;28;20045;-62
2022/11/06 12:33:57;;;;;;;13.63;3.13;;;13.80;99.90;;;;;;5053090;28;20079;-62
2022/11/06 12:36:38;;;;;;;13.50;2.60;;;13.80;99.90;;;;;;5052911;28;20043;-64
2022/11/06 12:39:04;;;;;;;14.93;2.60;;;13.80;99.90;;;;;;5053511;28;20045;-64
2022/11/06 12:41:31;;;;;;;18.15;2.70;;;13.80;99.90;;;;;;5053931;28;20425;-62
2022/11/06 12:43:58;;;;;;;11.70;2.70;;;13.80;99.90;;;;;;5052570;28;20116;-62
2022/11/06 12:46:25;;;;;;;10.75;2.47;;;13.90;99.90;;;;;;5053392;28;20064;-63
2022/11/06 12:48:52;;;;;;;14.77;2.97;;;13.90;99.90;;;;;;5052924;28;20033;-63
2022/11/06 12:51:18;;;;;;;18.67;3.88;;;13.90;99.90;;;;;;5053635;28;20073;-63
2022/11/06 12:53:45;;;;;;;16.52;3.13;;;13.90;99.90;;;;;;5053389;28;20136;-61
2022/11/06 12:56:12;;;;;;;17.50;3.03;;;14.00;99.90;;;;;;5051854;28;20571;-63
2022/11/06 12:58:39;;;;;;;14.23;2.53;;;14.00;99.90;;;;;;5053685;28;20072;-63